Time;durP1;ratioP1;P1;durP2;ratioP2;P2;SDS_P1;SDS_P2;PMS_P1;PMS_P2;Temp;Humidity;BMP_temperature;BMP_pressure;BME280_temperature;BME280_humidity;BME280_pressure;Samples;Min_cycle;Max_cycle;Signal;HPM_P1;HPM_P2
2023/02/04 00:00:40;;;;;;;6.23;1.97;;;;;;;19.15;43.26;103179.38;4992167;28;20093;-74
2023/02/04 00:03:05;;;;;;;6.28;2.03;;;;;;;19.09;43.21;103169.09;4991067;28;20783;-74
2023/02/04 00:05:30;;;;;;;6.85;2.13;;;;;;;19.09;43.00;103162.94;4991570;28;20025;-73
2023/02/04 00:07:56;;;;;;;7.13;2.03;;;;;;;19.09;43.15;103174.38;4991112;28;20030;-73
2023/02/04 00:10:22;;;;;;;7.68;2.28;;;;;;;19.06;42.97;103169.25;5007513;28;20042;-73
2023/02/04 00:12:47;;;;;;;7.88;2.35;;;;;;;19.09;42.83;103177.03;4954167;28;1090485;-74
2023/02/04 00:15:12;;;;;;;6.30;1.95;;;;;;;19.05;42.83;103171.97;4992323;28;20050;-73
2023/02/04 00:17:38;;;;;;;5.03;1.80;;;;;;;19.07;43.11;103178.88;4992435;28;20073;-72
2023/02/04 00:20:04;;;;;;;7.20;2.40;;;;;;;19.03;42.91;103164.94;4999955;28;20029;-73
2023/02/04 00:22:29;;;;;;;7.18;2.15;;;;;;;19.03;42.95;103177.31;4992434;28;20084;-74
2023/02/04 00:24:55;;;;;;;6.40;2.17;;;;;;;19.01;42.99;103169.47;4992655;28;20037;-74
2023/02/04 00:27:21;;;;;;;6.78;1.85;;;;;;;19.02;42.87;103173.81;4992005;28;20030;-74
2023/02/04 00:29:46;;;;;;;6.10;2.25;;;;;;;19.00;42.96;103178.31;4992452;28;20038;-71
2023/02/04 00:32:12;;;;;;;6.43;1.98;;;;;;;18.97;42.99;103177.63;4992178;28;20035;-74
2023/02/04 00:34:37;;;;;;;6.68;2.13;;;;;;;19.01;43.03;103182.69;4992373;28;20064;-73
2023/02/04 00:37:02;;;;;;;7.57;2.20;;;;;;;18.98;42.74;103184.63;4991659;28;20039;-73
2023/02/04 00:39:28;;;;;;;6.10;2.30;;;;;;;18.95;42.97;103176.84;4991481;28;20394;-73
2023/02/04 00:41:53;;;;;;;6.28;1.77;;;;;;;18.98;42.89;103184.63;4992010;28;20033;-73
2023/02/04 00:44:18;;;;;;;6.43;2.20;;;;;;;18.98;43.09;103189.91;4991037;28;20494;-73
2023/02/04 00:46:43;;;;;;;6.82;2.00;;;;;;;18.93;42.65;103195.41;4991295;28;20270;-73
2023/02/04 00:49:09;;;;;;;5.50;1.70;;;;;;;18.93;42.85;103195.41;4991235;28;20403;-73
2023/02/04 00:51:39;;;;;;;5.82;1.90;;;;;;;18.94;42.82;103201.53;4992428;28;20280;-74
2023/02/04 00:54:06;;;;;;;6.82;2.35;;;;;;;18.94;42.60;103201.53;4992189;28;20505;-74
2023/02/04 00:56:31;;;;;;;4.88;1.58;;;;;;;18.90;42.94;103190.28;5006281;28;20041;-74
2023/02/04 00:58:57;;;;;;;6.57;1.70;;;;;;;18.90;42.75;103195.56;4992067;28;20026;-75
2023/02/04 01:01:22;;;;;;;5.93;1.70;;;;;;;18.91;42.51;103199.03;4995936;28;20065;-74
2023/02/04 01:03:47;;;;;;;5.72;1.83;;;;;;;18.88;42.82;103193.91;4995894;28;20394;-74
2023/02/04 01:06:13;;;;;;;5.30;1.90;;;;;;;18.90;42.95;103192.03;4996159;28;20084;-76
2023/02/04 01:08:38;;;;;;;6.10;3.05;;;;;;;18.90;42.93;103198.19;4995783;28;20394;-74
2023/02/04 01:11:03;;;;;;;7.68;2.10;;;;;;;18.85;42.66;103193.13;4995676;28;20034;-73
2023/02/04 01:13:29;;;;;;;7.63;2.42;;;;;;;18.88;42.83;103204.47;4995607;28;20081;-73
2023/02/04 01:15:54;;;;;;;7.28;2.33;;;;;;;18.84;42.59;103195.84;4995216;28;20574;-73
2023/02/04 01:18:19;;;;;;;7.65;2.20;;;;;;;18.83;42.72;103197.59;4995954;28;20145;-73
2023/02/04 01:20:44;;;;;;;6.45;1.80;;;;;;;18.86;42.75;103212.47;4995333;28;20061;-74
2023/02/04 01:23:10;;;;;;;6.10;1.73;;;;;;;18.82;42.66;103210.88;4995815;28;20026;-75
2023/02/04 01:25:35;;;;;;;6.93;1.80;;;;;;;18.81;42.75;103204.72;4994190;28;20355;-73
2023/02/04 01:28:00;;;;;;;8.18;2.53;;;;;;;18.79;42.53;103203.09;4995606;28;21369;-72
2023/02/04 01:30:26;;;;;;;7.78;2.22;;;;;;;18.80;42.87;103215.34;4994852;28;20062;-72
2023/02/04 01:32:51;;;;;;;6.72;2.15;;;;;;;18.79;42.61;103219.78;4995934;28;20539;-74
2023/02/04 01:35:16;;;;;;;5.65;1.75;;;;;;;18.79;42.53;103216.31;4993545;28;20038;-74
2023/02/04 01:37:42;;;;;;;6.70;2.05;;;;;;;18.78;42.63;103219.88;4995705;28;20041;-75
2023/02/04 01:40:08;;;;;;;6.93;2.13;;;;;;;18.78;42.65;103227.78;4994767;28;20038;-72
2023/02/04 01:42:34;;;;;;;5.70;1.75;;;;;;;18.79;42.65;103234.81;4994950;28;20072;-73
2023/02/04 01:44:59;;;;;;;6.30;1.90;;;;;;;18.78;42.64;103231.28;4995256;28;20459;-74
2023/02/04 01:47:24;;;;;;;6.80;1.80;;;;;;;18.77;42.65;103240.16;4994320;28;20046;-72
2023/02/04 01:49:53;;;;;;;8.38;2.40;;;;;;;18.74;42.74;103228.84;5009597;28;20088;-73
2023/02/04 01:52:19;;;;;;;5.80;1.77;;;;;;;18.71;42.85;103229.88;4994945;28;20038;-73
2023/02/04 01:54:44;;;;;;;6.72;2.00;;;;;;;18.73;42.50;103237.72;4995138;28;20038;-74
2023/02/04 01:57:14;;;;;;;6.25;2.53;;;;;;;18.70;42.59;103232.59;4994981;28;20076;-72
2023/02/04 01:59:43;;;;;;;7.32;2.28;;;;;;;18.64;42.53;103220.50;4995061;28;20565;-73
2023/02/04 02:02:42;;;;;;;5.53;1.80;;;;;;;18.74;42.48;103236.78;4994349;28;20038;-72
2023/02/04 02:05:14;;;;;;;6.97;2.03;;;;;;;18.68;42.56;103232.66;5000636;28;20030;-74
2023/02/04 02:07:39;;;;;;;6.93;2.45;;;;;;;18.71;42.32;103239.56;4994419;28;20034;-73
2023/02/04 02:10:07;;;;;;;6.70;1.95;;;;;;;18.69;42.50;103242.25;4994016;28;20038;-75
2023/02/04 02:12:32;;;;;;;6.25;1.58;;;;;;;18.66;42.51;103247.72;4994419;28;20088;-74
2023/02/04 02:14:58;;;;;;;6.25;1.83;;;;;;;18.70;42.38;103245.78;4994240;28;20030;-75
2023/02/04 02:17:24;;;;;;;8.32;2.40;;;;;;;18.68;42.52;103253.78;4993766;28;20037;-73
2023/02/04 02:19:49;;;;;;;5.60;2.00;;;;;;;18.68;42.42;103251.13;4995097;28;20034;-73
2023/02/04 02:22:24;;;;;;;5.10;2.17;;;;;;;18.63;42.42;103240.78;4993068;28;20042;-75
2023/02/04 02:24:49;;;;;;;7.97;2.10;;;;;;;18.64;42.33;103245.16;4999624;28;20034;-74
2023/02/04 02:27:14;;;;;;;6.82;1.98;;;;;;;18.60;42.55;103238.28;4994045;28;20818;-73
2023/02/04 02:29:41;;;;;;;7.65;2.05;;;;;;;18.65;42.57;103244.19;4994850;28;20043;-74
2023/02/04 02:32:08;;;;;;;7.13;1.88;;;;;;;18.62;42.46;103240.84;4993312;28;20031;-74
2023/02/04 02:34:34;;;;;;;7.55;2.53;;;;;;;18.64;42.92;103249.56;4993970;28;20034;-75
2023/02/04 02:37:01;;;;;;;5.80;1.90;;;;;;;18.62;42.61;103252.25;4994843;28;20035;-74
2023/02/04 02:39:27;;;;;;;8.27;2.45;;;;;;;18.62;42.63;103243.50;4993522;28;20052;-73
2023/02/04 02:41:54;;;;;;;4.60;1.52;;;;;;;18.65;42.55;103249.47;4994557;28;20045;-73
2023/02/04 02:44:20;;;;;;;6.35;2.13;;;;;;;18.60;42.76;103240.91;4994509;28;20031;-74
2023/02/04 02:46:45;;;;;;;7.15;2.22;;;;;;;18.65;42.44;103253.91;4993657;28;20184;-73
2023/02/04 02:49:18;;;;;;;7.38;2.65;;;;;;;18.59;42.68;103255.03;5008322;28;20776;-73
2023/02/04 02:51:44;;;;;;;5.80;1.60;;;;;;;18.63;42.45;103264.56;4994256;28;20037;-73
2023/02/04 02:54:18;;;;;;;5.75;1.85;;;;;;;18.58;42.29;103257.75;4993966;28;21056;-73
2023/02/04 02:56:44;;;;;;;7.20;1.73;;;;;;;18.60;42.32;103259.41;4992278;28;20108;-76
2023/02/04 02:59:16;;;;;;;6.82;2.10;;;;;;;18.62;42.35;103270.75;4993986;28;20845;-74
2023/02/04 03:01:43;;;;;;;6.03;2.10;;;;;;;18.56;42.24;103263.09;4993072;28;20120;-72
2023/02/04 03:04:09;;;;;;;6.65;2.00;;;;;;;18.57;42.42;103272.75;4993164;28;20423;-72
2023/02/04 03:06:35;;;;;;;6.80;1.90;;;;;;;18.57;42.17;103278.03;4993687;28;20038;-73
2023/02/04 03:09:01;;;;;;;5.60;2.00;;;;;;;18.57;42.05;103274.53;4993604;28;20061;-74
2023/02/04 03:11:28;;;;;;;6.82;1.92;;;;;;;18.55;42.27;103277.25;4993805;28;20107;-71
2023/02/04 03:13:55;;;;;;;6.55;2.30;;;;;;;18.56;42.28;103276.31;4993294;28;20057;-72
2023/02/04 03:16:20;;;;;;;6.03;2.10;;;;;;;18.56;42.12;103280.75;4992051;28;20033;-72
2023/02/04 03:18:46;;;;;;;7.53;2.47;;;;;;;18.53;41.96;103276.44;4994217;28;20041;-74
2023/02/04 03:21:11;;;;;;;7.68;1.80;;;;;;;18.54;41.99;103279.97;4992983;28;20049;-77
2023/02/04 03:23:37;;;;;;;7.85;2.33;;;;;;;18.51;41.98;103275.66;5009196;28;20041;-80
2023/02/04 03:26:03;;;;;;;7.45;2.00;;;;;;;18.55;41.63;103281.66;4992062;28;20513;-78
2023/02/04 03:28:30;;;;;;;7.68;2.17;;;;;;;18.48;41.55;103278.44;4994461;28;20109;-76
2023/02/04 03:30:55;;;;;;;6.03;2.03;;;;;;;18.51;41.83;103285.38;4999462;28;20405;-75
2023/02/04 03:33:23;;;;;;;5.15;1.85;;;;;;;18.54;41.67;103298.44;4993884;28;20037;-73
2023/02/04 03:35:48;;;;;;;7.68;2.13;;;;;;;18.52;41.67;103295.00;4993247;28;20483;-75
2023/02/04 03:38:13;;;;;;;7.15;2.10;;;;;;;18.53;41.46;103302.00;4993729;28;20121;-75
2023/02/04 03:40:38;;;;;;;7.03;1.75;;;;;;;18.47;41.55;103296.06;4993101;28;20574;-75
2023/02/04 03:43:04;;;;;;;6.85;2.13;;;;;;;18.47;41.30;103304.00;4991376;28;20034;-77
2023/02/04 03:45:29;;;;;;;8.57;2.17;;;;;;;18.51;41.49;103315.28;4992706;28;20096;-75
2023/02/04 03:47:54;;;;;;;6.97;2.05;;;;;;;18.44;41.13;103303.28;4992123;28;20307;-75
2023/02/04 03:50:20;;;;;;;6.07;1.70;;;;;;;18.41;41.14;103287.56;4993545;28;20530;-76
2023/02/04 03:52:45;;;;;;;6.97;2.08;;;;;;;18.48;41.29;103308.38;4993170;28;20267;-78
2023/02/04 03:55:10;;;;;;;7.40;2.15;;;;;;;18.43;41.28;103302.41;4988124;28;20105;-79
2023/02/04 03:57:35;;;;;;;4.93;1.90;;;;;;;18.47;41.25;103311.91;4987206;28;20034;-77
2023/02/04 04:00:01;;;;;;;5.32;2.00;;;;;;;18.42;41.24;103299.81;4985856;28;20034;-76
2023/02/04 04:02:26;;;;;;;5.53;1.70;;;;;;;18.37;41.30;103294.75;4985563;28;20026;-77
2023/02/04 04:04:51;;;;;;;5.07;1.85;;;;;;;18.42;41.43;103302.47;4987085;28;20474;-77
2023/02/04 04:07:17;;;;;;;6.05;1.75;;;;;;;18.46;41.45;103312.81;4986296;28;20031;-76
2023/02/04 04:09:42;;;;;;;4.45;1.60;;;;;;;18.40;41.13;103315.72;4988592;28;20048;-75
2023/02/04 04:12:07;;;;;;;6.15;1.80;;;;;;;18.41;41.20;103309.53;4992610;28;20034;-76
2023/02/04 04:14:33;;;;;;;5.65;1.55;;;;;;;18.44;41.20;103316.47;4992909;28;20080;-77
2023/02/04 04:16:58;;;;;;;5.35;1.83;;;;;;;18.40;40.56;103304.31;4992873;28;20121;-77
2023/02/04 04:19:23;;;;;;;4.63;1.60;;;;;;;18.40;40.90;103309.59;4993294;28;20033;-77
2023/02/04 04:21:49;;;;;;;4.07;1.48;;;;;;;18.36;41.04;103300.09;4991751;28;20475;-75
2023/02/04 04:24:14;;;;;;;4.85;1.75;;;;;;;18.36;40.68;103302.72;4992477;28;20034;-76
2023/02/04 04:26:39;;;;;;;5.63;1.70;;;;;;;18.37;40.80;103315.88;4992711;28;20534;-78
2023/02/04 04:29:05;;;;;;;3.13;1.20;;;;;;;18.40;40.75;103315.72;4991517;28;20034;-76
2023/02/04 04:31:30;;;;;;;6.28;1.90;;;;;;;18.36;40.69;103318.56;4992260;28;20041;-77
2023/02/04 04:33:55;;;;;;;4.47;1.60;;;;;;;18.37;40.73;103321.16;4992232;28;20066;-76
2023/02/04 04:36:20;;;;;;;6.03;1.83;;;;;;;18.35;40.71;103320.34;4991704;28;20116;-75
2023/02/04 04:38:46;;;;;;;4.87;1.87;;;;;;;18.29;40.32;103310.94;4992608;28;20057;-75
2023/02/04 04:41:11;;;;;;;4.43;1.40;;;;;;;18.32;40.60;103317.84;4998854;28;20528;-75
2023/02/04 04:43:36;;;;;;;5.00;1.50;;;;;;;18.36;40.56;103335.28;4992754;28;20038;-75
2023/02/04 04:46:02;;;;;;;5.05;1.50;;;;;;;18.31;40.56;103327.56;4992455;28;20034;-74
2023/02/04 04:48:27;;;;;;;6.00;1.52;;;;;;;18.34;40.78;103328.34;4991340;28;20027;-75
2023/02/04 04:50:52;;;;;;;4.95;1.70;;;;;;;18.32;40.70;103338.97;4992310;28;20041;-76
2023/02/04 04:53:17;;;;;;;6.40;1.73;;;;;;;18.30;40.58;103332.91;4991725;28;20139;-76
2023/02/04 04:55:43;;;;;;;6.03;1.30;;;;;;;18.34;40.59;103334.50;4993425;28;20041;-75
2023/02/04 04:58:08;;;;;;;5.20;1.50;;;;;;;18.25;40.80;103325.19;4992722;28;20037;-77
2023/02/04 05:00:34;;;;;;;5.47;1.98;;;;;;;18.31;40.57;103326.72;4990811;28;20057;-76
2023/02/04 05:02:59;;;;;;;6.32;1.80;;;;;;;18.32;40.77;103331.06;4990562;28;20500;-78
2023/02/04 05:05:25;;;;;;;3.88;1.45;;;;;;;18.31;40.78;103339.91;4989438;28;20031;-76
2023/02/04 05:07:52;;;;;;;5.85;1.70;;;;;;;18.28;40.69;103338.25;4987558;28;20035;-75
2023/02/04 05:10:18;;;;;;;4.82;1.50;;;;;;;18.28;40.52;103343.53;4989456;28;20387;-75
2023/02/04 05:12:44;;;;;;;4.30;1.50;;;;;;;18.24;40.41;103336.66;4992352;28;20058;-76
2023/02/04 05:15:09;;;;;;;4.32;1.50;;;;;;;18.17;40.50;103331.72;4991787;28;20054;-76
2023/02/04 05:17:34;;;;;;;6.10;1.83;;;;;;;18.28;40.55;103348.81;4991170;28;20776;-76
2023/02/04 05:20:00;;;;;;;6.50;1.65;;;;;;;18.26;40.70;103357.72;4991194;28;20038;-77
2023/02/04 05:22:25;;;;;;;4.22;1.58;;;;;;;18.28;40.42;103355.88;4998654;28;20030;-76
2023/02/04 05:24:51;;;;;;;5.50;1.98;;;;;;;18.27;40.60;103362.91;4991704;28;20031;-78
2023/02/04 05:27:16;;;;;;;5.47;2.08;;;;;;;18.25;40.60;103366.56;4998936;28;20035;-75
2023/02/04 05:29:41;;;;;;;4.97;1.60;;;;;;;18.17;40.43;103353.69;4991054;28;20090;-76
2023/02/04 05:32:06;;;;;;;5.97;1.90;;;;;;;18.24;40.91;103364.84;4992245;28;20033;-77
2023/02/04 05:34:32;;;;;;;4.90;1.83;;;;;;;18.24;40.58;103365.69;4991932;28;20092;-76
2023/02/04 05:36:57;;;;;;;5.03;1.75;;;;;;;18.23;40.60;103360.47;4991657;28;20399;-77
2023/02/04 05:39:22;;;;;;;6.28;2.53;;;;;;;18.25;40.68;103359.50;4990483;28;20113;-75
2023/02/04 05:41:47;;;;;;;6.63;1.90;;;;;;;18.26;40.76;103362.97;4991071;28;20397;-77
2023/02/04 05:44:13;;;;;;;6.47;1.83;;;;;;;18.24;40.63;103367.47;4991203;28;20463;-77
2023/02/04 05:46:38;;;;;;;6.60;2.08;;;;;;;18.23;40.91;103361.34;4994756;28;20486;-77
2023/02/04 05:49:04;;;;;;;4.78;1.50;;;;;;;18.22;40.77;103356.13;4993406;28;20034;-76
2023/02/04 05:51:30;;;;;;;5.50;1.42;;;;;;;18.23;40.91;103353.44;4994560;28;20060;-77
2023/02/04 05:53:55;;;;;;;7.22;1.90;;;;;;;18.21;40.49;103355.25;4994578;28;20030;-76
2023/02/04 05:56:20;;;;;;;5.25;1.83;;;;;;;18.22;40.72;103361.41;4993873;28;20139;-76
2023/02/04 05:58:45;;;;;;;6.18;1.70;;;;;;;18.23;40.65;103360.47;4994765;28;20116;-75
2023/02/04 06:01:11;;;;;;;5.38;1.55;;;;;;;18.22;40.91;103354.34;4994673;28;20062;-77
2023/02/04 06:03:36;;;;;;;4.93;1.48;;;;;;;18.24;41.09;103360.41;4995103;28;20082;-76
2023/02/04 06:06:01;;;;;;;4.57;1.50;;;;;;;18.22;41.13;103364.91;5000446;28;21272;-77
2023/02/04 06:08:27;;;;;;;4.60;1.73;;;;;;;18.26;41.49;103366.50;4994807;28;20065;-76
2023/02/04 06:10:52;;;;;;;4.47;1.23;;;;;;;18.30;41.24;103375.16;4993553;28;20030;-78
2023/02/04 06:13:17;;;;;;;4.50;1.52;;;;;;;18.25;41.16;103372.69;4994892;28;20050;-77
2023/02/04 06:15:43;;;;;;;3.92;1.30;;;;;;;18.32;41.12;103381.22;4994094;28;20033;-79
2023/02/04 06:18:08;;;;;;;4.00;1.50;;;;;;;18.37;41.40;103381.03;4995090;28;20534;-77
2023/02/04 06:20:33;;;;;;;5.18;1.35;;;;;;;18.38;41.31;103391.50;4995214;28;20501;-79
2023/02/04 06:22:59;;;;;;;5.00;1.60;;;;;;;18.43;41.33;103391.31;4994713;28;20034;-77
2023/02/04 06:25:24;;;;;;;5.18;1.52;;;;;;;18.46;41.28;103397.31;4994682;28;20042;-76
2023/02/04 06:27:50;;;;;;;5.60;1.50;;;;;;;18.49;41.11;103405.13;4994316;28;20713;-76
2023/02/04 06:30:16;;;;;;;3.80;1.33;;;;;;;18.56;41.19;103402.22;4994028;28;20042;-76
2023/02/04 06:32:41;;;;;;;4.50;1.30;;;;;;;18.58;40.94;103409.16;4994232;28;20038;-78
2023/02/04 06:35:08;;;;;;;4.20;1.40;;;;;;;18.61;41.02;103416.97;5000852;28;20074;-79
2023/02/04 06:37:33;;;;;;;4.05;1.30;;;;;;;18.62;40.97;103408.09;4994513;28;20065;-77
2023/02/04 06:39:58;;;;;;;4.47;1.38;;;;;;;18.67;40.88;103418.47;4993548;28;20599;-76
2023/02/04 06:42:24;;;;;;;4.65;1.50;;;;;;;18.67;40.93;103416.69;4993120;28;20096;-77
2023/02/04 06:44:50;;;;;;;3.97;1.20;;;;;;;18.64;40.84;103419.47;4992558;28;20037;-79
2023/02/04 06:47:16;;;;;;;4.90;1.30;;;;;;;18.71;40.96;103422.69;4994575;28;20046;-78
2023/02/04 06:49:41;;;;;;;4.25;1.40;;;;;;;18.71;41.11;103432.38;5000692;28;20034;-74
2023/02/04 06:52:06;;;;;;;3.70;1.25;;;;;;;18.71;41.00;103427.97;4992380;28;20061;-76
2023/02/04 06:54:31;;;;;;;4.82;1.58;;;;;;;18.75;40.63;103426.06;4993729;28;20030;-77
2023/02/04 06:57:05;;;;;;;4.45;1.50;;;;;;;18.72;40.68;103421.75;4991818;28;20045;-76
2023/02/04 06:59:31;;;;;;;4.87;1.40;;;;;;;18.77;40.71;103440.94;4992347;28;20030;-78
2023/02/04 07:01:57;;;;;;;5.60;1.55;;;;;;;18.79;40.73;103436.44;4992936;28;20026;-75
2023/02/04 07:04:22;;;;;;;4.53;1.13;;;;;;;18.80;40.88;103438.16;5007971;28;20038;-76
2023/02/04 07:06:47;;;;;;;4.05;1.48;;;;;;;18.79;40.75;103438.22;4992843;28;20042;-76
2023/02/04 07:09:13;;;;;;;4.53;1.40;;;;;;;18.76;40.51;103441.00;4992828;28;20036;-77
2023/02/04 07:11:38;;;;;;;4.80;1.55;;;;;;;18.79;40.67;103441.72;4992791;28;20561;-77
2023/02/04 07:14:03;;;;;;;4.22;1.23;;;;;;;18.74;40.78;103437.53;4992782;28;20069;-76
2023/02/04 07:16:29;;;;;;;4.28;1.55;;;;;;;18.80;40.94;103448.72;5006858;28;20439;-76
2023/02/04 07:18:54;;;;;;;4.68;1.35;;;;;;;18.83;40.71;103453.00;4991878;28;20034;-73
2023/02/04 07:21:19;;;;;;;4.20;1.45;;;;;;;18.84;40.82;103458.25;4992044;28;20062;-68
2023/02/04 07:23:44;;;;;;;4.10;1.40;;;;;;;18.83;40.63;103464.44;4992312;28;20034;-74
2023/02/04 07:26:10;;;;;;;8.27;2.05;;;;;;;18.80;40.66;103454.00;4991807;28;20662;-76
2023/02/04 07:28:35;;;;;;;7.32;2.47;;;;;;;18.80;40.85;103461.06;4992627;28;20042;-78
2023/02/04 07:31:01;;;;;;;4.85;1.70;;;;;;;18.79;40.97;103470.78;4991293;28;20057;-77
2023/02/04 07:33:26;;;;;;;4.82;1.80;;;;;;;18.79;40.82;103467.28;4993730;28;20042;-77
2023/02/04 07:35:51;;;;;;;6.20;1.70;;;;;;;18.72;41.42;103452.59;4991732;28;20460;-76
2023/02/04 07:38:17;;;;;;;4.50;1.60;;;;;;;18.78;41.18;103474.31;4992471;28;20160;-78
2023/02/04 07:40:42;;;;;;;5.97;1.88;;;;;;;18.74;41.51;103467.47;4990333;28;20041;-77
2023/02/04 07:43:07;;;;;;;4.45;1.75;;;;;;;18.76;41.19;103468.25;4992781;28;20026;-76
2023/02/04 07:45:32;;;;;;;4.40;1.58;;;;;;;18.74;41.38;103462.19;4992069;28;20061;-75
2023/02/04 07:47:58;;;;;;;6.72;1.80;;;;;;;18.76;41.76;103464.78;4992835;28;20033;-71
2023/02/04 07:50:23;;;;;;;5.53;1.70;;;;;;;18.77;41.82;103475.28;4991301;28;20164;-74
2023/02/04 07:52:48;;;;;;;5.85;1.40;;;;;;;18.77;41.90;103469.09;4993112;28;20044;-76
2023/02/04 07:55:14;;;;;;;6.15;1.60;;;;;;;18.78;42.11;103482.25;4992187;28;20395;-75
2023/02/04 07:57:39;;;;;;;6.03;1.80;;;;;;;18.80;42.00;103483.06;4992156;28;20057;-74
2023/02/04 08:00:05;;;;;;;5.93;1.67;;;;;;;18.81;41.84;103492.69;4999186;28;20045;-74
2023/02/04 08:02:30;;;;;;;4.75;1.40;;;;;;;18.82;41.96;103505.00;4993218;28;20033;-74
2023/02/04 08:04:56;;;;;;;4.60;1.60;;;;;;;18.76;41.96;103489.41;4992866;28;20026;-78
2023/02/04 08:07:21;;;;;;;4.90;1.77;;;;;;;18.80;41.89;103505.97;4991802;28;20092;-77
2023/02/04 08:09:46;;;;;;;6.18;1.95;;;;;;;18.79;41.89;103499.84;4992874;28;20343;-78
2023/02/04 08:12:12;;;;;;;5.78;1.73;;;;;;;18.79;42.09;103499.00;4992233;28;20077;-78
2023/02/04 08:14:37;;;;;;;6.07;2.00;;;;;;;18.78;41.92;103500.75;4993649;28;20049;-79
2023/02/04 08:17:02;;;;;;;6.20;1.80;;;;;;;18.78;41.90;103500.75;4992728;28;20042;-78
2023/02/04 08:19:27;;;;;;;6.50;2.05;;;;;;;18.69;42.03;103482.63;5008023;28;20091;-77
2023/02/04 08:21:53;;;;;;;5.57;2.17;;;;;;;18.79;41.85;103505.13;4993870;28;20030;-79
2023/02/04 08:24:18;;;;;;;4.20;1.75;;;;;;;18.75;41.93;103498.22;4993719;28;20038;-79
2023/02/04 08:26:43;;;;;;;6.07;1.95;;;;;;;18.78;42.17;103511.31;4992731;28;21208;-79
2023/02/04 08:29:09;;;;;;;6.38;1.77;;;;;;;18.77;41.97;103503.47;4993502;28;20081;-76
2023/02/04 08:31:36;;;;;;;5.30;1.60;;;;;;;18.76;42.01;103513.19;4998518;28;20038;-81
2023/02/04 08:34:05;;;;;;;4.22;1.50;;;;;;;18.76;41.97;103514.97;4991272;28;20038;-74
2023/02/04 08:36:30;;;;;;;6.18;2.17;;;;;;;18.79;41.95;103520.13;4997418;28;20026;-76
2023/02/04 08:38:56;;;;;;;5.68;1.88;;;;;;;18.78;42.29;103521.03;4991731;28;21113;-75
2023/02/04 08:41:21;;;;;;;6.15;2.03;;;;;;;18.81;42.25;103527.03;4991307;28;20045;-75
2023/02/04 08:43:46;;;;;;;5.68;1.75;;;;;;;18.87;42.31;103533.91;4991754;28;20030;-74
2023/02/04 08:46:12;;;;;;;6.25;2.00;;;;;;;18.81;42.02;103516.47;4991492;28;20034;-76
2023/02/04 08:48:37;;;;;;;7.03;2.40;;;;;;;18.89;42.18;103531.19;4991690;28;20566;-75
2023/02/04 08:51:03;;;;;;;7.22;2.00;;;;;;;18.84;42.40;103516.38;5005954;28;20034;-73
2023/02/04 08:53:28;;;;;;;7.05;2.05;;;;;;;18.88;42.66;103529.47;4989766;28;20049;-75
2023/02/04 08:55:53;;;;;;;6.18;2.25;;;;;;;18.90;42.99;103532.88;5006700;28;20406;-75
2023/02/04 08:58:19;;;;;;;7.03;2.10;;;;;;;18.92;42.65;103539.00;4992268;28;20062;-74
2023/02/04 09:00:44;;;;;;;5.93;2.17;;;;;;;18.90;42.74;103532.88;4991643;28;20033;-71
2023/02/04 09:03:09;;;;;;;8.38;2.00;;;;;;;18.95;42.57;103538.88;4991488;28;20058;-71
2023/02/04 09:05:34;;;;;;;6.50;2.10;;;;;;;18.96;42.88;103540.56;4991828;28;20406;-75
2023/02/04 09:08:00;;;;;;;7.05;2.00;;;;;;;18.95;42.69;103544.16;4989236;28;20030;-77
2023/02/04 09:10:25;;;;;;;6.50;2.30;;;;;;;18.94;42.84;103543.28;4991421;28;20030;-73
2023/02/04 09:12:54;;;;;;;5.63;2.22;;;;;;;18.93;42.92;103546.84;4992095;28;20531;-72
2023/02/04 09:15:21;;;;;;;6.93;2.05;;;;;;;18.95;43.10;103552.06;4992045;28;20038;-75
2023/02/04 09:17:46;;;;;;;12.77;3.42;;;;;;;18.93;42.96;103538.03;4991443;28;20133;-75
2023/02/04 09:20:11;;;;;;;5.80;2.10;;;;;;;18.98;43.29;103550.16;4993131;28;20120;-74
2023/02/04 09:22:37;;;;;;;6.22;2.00;;;;;;;18.97;43.03;103550.22;4993758;28;20029;-73
2023/02/04 09:25:03;;;;;;;6.55;2.90;;;;;;;18.98;43.12;103554.59;4995244;28;20095;-72
2023/02/04 09:27:28;;;;;;;5.70;1.83;;;;;;;18.99;43.34;103545.72;4995294;28;20038;-74
2023/02/04 09:29:53;;;;;;;6.32;2.10;;;;;;;19.02;43.34;103558.81;4995301;28;20081;-73
2023/02/04 09:32:19;;;;;;;6.47;2.22;;;;;;;18.97;43.36;103559.00;4995554;28;20048;-77
2023/02/04 09:34:44;;;;;;;7.00;2.70;;;;;;;18.99;43.39;103557.16;4994945;28;20121;-76
2023/02/04 09:37:09;;;;;;;7.05;2.88;;;;;;;19.02;43.29;103559.66;4996932;28;20034;-70
2023/02/04 09:39:34;;;;;;;5.65;2.40;;;;;;;19.02;43.34;103566.72;4995084;28;20049;-71
2023/02/04 09:42:00;;;;;;;8.38;2.33;;;;;;;19.05;43.34;103569.25;4995798;28;20398;-74
2023/02/04 09:44:27;;;;;;;6.28;2.58;;;;;;;19.05;43.15;103561.31;4994800;28;20113;-72
2023/02/04 09:46:55;;;;;;;8.40;2.70;;;;;;;18.95;43.18;103549.44;4995039;28;20290;-73
2023/02/04 09:49:21;;;;;;;6.63;2.78;;;;;;;19.03;43.26;103569.31;4995433;28;20058;-74
2023/02/04 09:51:48;;;;;;;8.68;3.25;;;;;;;19.01;43.34;103562.41;4995510;28;20040;-73
2023/02/04 09:54:15;;;;;;;6.28;2.60;;;;;;;19.02;43.21;103566.72;4995305;28;20062;-75
2023/02/04 09:56:41;;;;;;;8.23;2.75;;;;;;;19.05;43.22;103571.91;4994566;28;20045;-72
2023/02/04 09:59:15;;;;;;;9.02;2.92;;;;;;;19.02;43.29;103574.66;4995453;28;20037;-74
2023/02/04 10:01:40;;;;;;;8.82;3.13;;;;;;;19.05;43.27;103578.97;4995016;28;20840;-74
2023/02/04 10:04:11;;;;;;;7.68;2.75;;;;;;;19.03;43.06;103576.38;4994921;28;20073;-72
2023/02/04 10:06:38;;;;;;;6.13;2.60;;;;;;;19.05;43.24;103585.09;4994400;28;20479;-72
2023/02/04 10:09:04;;;;;;;7.63;2.50;;;;;;;19.02;43.26;103579.94;4993549;28;20480;-74
2023/02/04 10:11:33;;;;;;;9.77;2.75;;;;;;;19.03;43.18;103590.47;4994969;28;20117;-73
2023/02/04 10:13:58;;;;;;;8.75;3.00;;;;;;;19.04;43.32;103583.38;4995134;28;20050;-74
2023/02/04 10:16:40;;;;;;;6.47;2.80;;;;;;;19.03;43.39;103584.31;4994600;28;20060;-74
2023/02/04 10:19:12;;;;;;;7.55;3.05;;;;;;;19.07;43.43;103591.19;4992999;28;20069;-73
2023/02/04 10:21:39;;;;;;;7.32;2.67;;;;;;;19.05;43.32;103579.81;4995003;28;20029;-75
2023/02/04 10:24:12;;;;;;;7.03;3.05;;;;;;;19.05;43.40;103581.63;4993386;28;20942;-75
2023/02/04 10:26:37;;;;;;;8.60;3.00;;;;;;;19.05;43.35;103582.47;4993250;28;20042;-74
2023/02/04 10:29:06;;;;;;;7.45;3.67;;;;;;;19.07;43.23;103585.03;4998999;28;20042;-75
2023/02/04 10:31:36;;;;;;;7.05;3.00;;;;;;;19.02;43.15;103594.00;4993671;28;20458;-76
2023/02/04 10:34:21;;;;;;;8.98;3.00;;;;;;;19.05;43.32;103595.69;4993848;28;20545;-75
2023/02/04 10:36:52;;;;;;;10.93;3.13;;;;;;;19.00;43.02;103592.38;4995005;28;20125;-74
2023/02/04 10:39:23;;;;;;;8.85;3.28;;;;;;;19.02;43.32;103598.44;4992552;28;20602;-78
2023/02/04 10:41:51;;;;;;;6.85;3.22;;;;;;;19.02;43.27;103593.16;4994582;28;20026;-77
2023/02/04 10:44:29;;;;;;;7.38;3.10;;;;;;;19.03;43.18;103597.53;4993584;28;20038;-75
2023/02/04 10:47:02;;;;;;;6.97;2.83;;;;;;;19.00;43.38;103605.59;4991281;28;21278;-75
2023/02/04 10:49:28;;;;;;;7.30;3.30;;;;;;;19.03;43.34;103602.81;4992221;28;20038;-76
2023/02/04 10:51:53;;;;;;;9.50;3.20;;;;;;;19.04;42.91;103599.22;4991649;28;20034;-75
2023/02/04 10:54:31;;;;;;;7.38;3.00;;;;;;;19.01;43.14;103594.09;4992773;28;20026;-70
2023/02/04 10:56:58;;;;;;;8.25;3.72;;;;;;;19.01;43.07;103599.41;4990681;28;20073;-74
2023/02/04 10:59:28;;;;;;;6.97;2.88;;;;;;;19.05;43.18;103606.25;4995859;28;20073;-73
2023/02/04 11:01:56;;;;;;;8.07;3.40;;;;;;;19.01;43.10;103600.25;4991641;28;20030;-73
2023/02/04 11:04:21;;;;;;;9.27;2.83;;;;;;;19.03;43.08;103605.47;4991337;28;20504;-75
2023/02/04 11:06:47;;;;;;;8.38;2.80;;;;;;;19.04;43.05;103599.22;4992998;28;20121;-75
2023/02/04 11:09:14;;;;;;;8.75;2.90;;;;;;;19.05;43.08;103602.75;4994512;28;20498;-74
2023/02/04 11:11:45;;;;;;;8.68;3.20;;;;;;;19.01;43.03;103599.41;4992479;28;20030;-74
2023/02/04 11:14:37;;;;;;;7.53;3.15;;;;;;;19.07;43.05;103600.91;4989671;28;20578;-75
2023/02/04 11:17:02;;;;;;;8.43;3.13;;;;;;;19.05;43.13;103595.69;4989098;28;20050;-73
2023/02/04 11:19:45;;;;;;;7.05;2.85;;;;;;;18.99;43.20;103585.38;4991786;28;20026;-75